sensor_id;sensor_type;location;lat;lon;timestamp;P1;durP1;ratioP1;P2;durP2;ratioP2
80111;SDS011;69421;51.062;3.728;2023-05-07T00:01:16;6.65;;;2.65;;
80111;SDS011;69421;51.062;3.728;2023-05-07T00:03:41;7.22;;;2.65;;
80111;SDS011;69421;51.062;3.728;2023-05-07T00:06:07;7.60;;;2.53;;
80111;SDS011;69421;51.062;3.728;2023-05-07T00:08:33;9.70;;;2.83;;
80111;SDS011;69421;51.062;3.728;2023-05-07T00:10:58;8.60;;;3.00;;
80111;SDS011;69421;51.062;3.728;2023-05-07T00:13:24;10.18;;;3.00;;
80111;SDS011;69421;51.062;3.728;2023-05-07T00:15:50;10.88;;;3.33;;
80111;SDS011;69421;51.062;3.728;2023-05-07T00:18:15;7.50;;;2.72;;
80111;SDS011;69421;51.062;3.728;2023-05-07T00:20:41;7.20;;;2.38;;
80111;SDS011;69421;51.062;3.728;2023-05-07T00:23:07;5.82;;;2.85;;
80111;SDS011;69421;51.062;3.728;2023-05-07T00:25:32;7.45;;;2.63;;
80111;SDS011;69421;51.062;3.728;2023-05-07T00:27:58;7.38;;;2.70;;
80111;SDS011;69421;51.062;3.728;2023-05-07T00:30:28;9.23;;;3.53;;
80111;SDS011;69421;51.062;3.728;2023-05-07T00:32:54;6.00;;;3.05;;
80111;SDS011;69421;51.062;3.728;2023-05-07T00:35:20;5.43;;;2.63;;
80111;SDS011;69421;51.062;3.728;2023-05-07T00:37:45;10.20;;;2.70;;
80111;SDS011;69421;51.062;3.728;2023-05-07T00:40:11;9.38;;;3.40;;
80111;SDS011;69421;51.062;3.728;2023-05-07T00:42:37;8.32;;;3.15;;
80111;SDS011;69421;51.062;3.728;2023-05-07T00:45:03;11.07;;;3.92;;
80111;SDS011;69421;51.062;3.728;2023-05-07T00:47:29;9.00;;;3.70;;
80111;SDS011;69421;51.062;3.728;2023-05-07T00:49:55;5.47;;;3.30;;
80111;SDS011;69421;51.062;3.728;2023-05-07T00:52:22;8.80;;;3.22;;
80111;SDS011;69421;51.062;3.728;2023-05-07T00:54:51;8.45;;;3.45;;
80111;SDS011;69421;51.062;3.728;2023-05-07T00:57:16;7.53;;;3.00;;
80111;SDS011;69421;51.062;3.728;2023-05-07T00:59:42;6.57;;;3.33;;
80111;SDS011;69421;51.062;3.728;2023-05-07T01:02:08;8.93;;;2.53;;
80111;SDS011;69421;51.062;3.728;2023-05-07T01:04:33;5.15;;;2.63;;
80111;SDS011;69421;51.062;3.728;2023-05-07T01:06:59;8.30;;;2.83;;
80111;SDS011;69421;51.062;3.728;2023-05-07T01:09:26;4.75;;;2.65;;
80111;SDS011;69421;51.062;3.728;2023-05-07T01:11:53;6.45;;;2.95;;
80111;SDS011;69421;51.062;3.728;2023-05-07T01:14:19;8.10;;;2.63;;
80111;SDS011;69421;51.062;3.728;2023-05-07T01:16:46;12.85;;;3.35;;
80111;SDS011;69421;51.062;3.728;2023-05-07T01:19:12;6.75;;;2.35;;
80111;SDS011;69421;51.062;3.728;2023-05-07T01:21:42;7.65;;;2.70;;
80111;SDS011;69421;51.062;3.728;2023-05-07T01:24:11;7.32;;;3.30;;
80111;SDS011;69421;51.062;3.728;2023-05-07T01:26:38;8.90;;;3.03;;
80111;SDS011;69421;51.062;3.728;2023-05-07T01:29:04;6.63;;;2.53;;
80111;SDS011;69421;51.062;3.728;2023-05-07T01:31:30;7.90;;;2.80;;
80111;SDS011;69421;51.062;3.728;2023-05-07T01:33:57;5.85;;;3.35;;
80111;SDS011;69421;51.062;3.728;2023-05-07T01:36:25;7.28;;;3.88;;
80111;SDS011;69421;51.062;3.728;2023-05-07T01:38:52;9.00;;;3.60;;
80111;SDS011;69421;51.062;3.728;2023-05-07T01:41:18;7.53;;;3.58;;
80111;SDS011;69421;51.062;3.728;2023-05-07T01:43:44;10.40;;;4.57;;
80111;SDS011;69421;51.062;3.728;2023-05-07T01:46:12;7.53;;;4.13;;
80111;SDS011;69421;51.062;3.728;2023-05-07T01:48:38;9.63;;;4.10;;
80111;SDS011;69421;51.062;3.728;2023-05-07T01:51:04;5.80;;;3.47;;
80111;SDS011;69421;51.062;3.728;2023-05-07T01:53:35;6.65;;;3.25;;
80111;SDS011;69421;51.062;3.728;2023-05-07T01:56:01;10.18;;;3.97;;
80111;SDS011;69421;51.062;3.728;2023-05-07T01:58:27;8.15;;;3.38;;
80111;SDS011;69421;51.062;3.728;2023-05-07T02:00:52;5.28;;;3.55;;
80111;SDS011;69421;51.062;3.728;2023-05-07T02:03:18;6.32;;;3.70;;
80111;SDS011;69421;51.062;3.728;2023-05-07T02:05:44;7.95;;;4.10;;
80111;SDS011;69421;51.062;3.728;2023-05-07T02:08:09;10.55;;;4.22;;
80111;SDS011;69421;51.062;3.728;2023-05-07T02:10:35;8.15;;;4.30;;
80111;SDS011;69421;51.062;3.728;2023-05-07T02:13:01;6.63;;;4.15;;
80111;SDS011;69421;51.062;3.728;2023-05-07T02:15:27;7.03;;;3.90;;
80111;SDS011;69421;51.062;3.728;2023-05-07T02:17:59;8.02;;;3.90;;
80111;SDS011;69421;51.062;3.728;2023-05-07T02:20:25;5.88;;;3.85;;
80111;SDS011;69421;51.062;3.728;2023-05-07T02:22:51;6.60;;;3.75;;
80111;SDS011;69421;51.062;3.728;2023-05-07T02:25:16;6.13;;;3.97;;
80111;SDS011;69421;51.062;3.728;2023-05-07T02:27:42;9.15;;;4.45;;
80111;SDS011;69421;51.062;3.728;2023-05-07T02:30:08;8.13;;;4.25;;
80111;SDS011;69421;51.062;3.728;2023-05-07T02:32:33;9.25;;;3.97;;
80111;SDS011;69421;51.062;3.728;2023-05-07T02:34:59;9.63;;;4.50;;
80111;SDS011;69421;51.062;3.728;2023-05-07T02:37:25;9.40;;;3.97;;
80111;SDS011;69421;51.062;3.728;2023-05-07T02:39:50;10.02;;;4.65;;
80111;SDS011;69421;51.062;3.728;2023-05-07T02:42:16;10.60;;;4.72;;
80111;SDS011;69421;51.062;3.728;2023-05-07T02:44:42;9.93;;;4.13;;
80111;SDS011;69421;51.062;3.728;2023-05-07T02:47:07;8.18;;;4.03;;
80111;SDS011;69421;51.062;3.728;2023-05-07T02:49:34;10.20;;;5.18;;
80111;SDS011;69421;51.062;3.728;2023-05-07T02:52:00;11.27;;;4.82;;
80111;SDS011;69421;51.062;3.728;2023-05-07T02:54:25;9.55;;;3.85;;
80111;SDS011;69421;51.062;3.728;2023-05-07T02:56:51;9.23;;;4.90;;
80111;SDS011;69421;51.062;3.728;2023-05-07T02:59:17;8.32;;;3.53;;
80111;SDS011;69421;51.062;3.728;2023-05-07T03:01:42;6.65;;;3.95;;
80111;SDS011;69421;51.062;3.728;2023-05-07T03:04:10;7.10;;;3.88;;
80111;SDS011;69421;51.062;3.728;2023-05-07T03:06:36;7.72;;;4.78;;
80111;SDS011;69421;51.062;3.728;2023-05-07T03:09:02;10.70;;;4.22;;
80111;SDS011;69421;51.062;3.728;2023-05-07T03:11:28;8.85;;;4.28;;
80111;SDS011;69421;51.062;3.728;2023-05-07T03:13:53;7.55;;;4.20;;
80111;SDS011;69421;51.062;3.728;2023-05-07T03:16:19;11.02;;;4.10;;
80111;SDS011;69421;51.062;3.728;2023-05-07T03:18:45;8.50;;;4.82;;
80111;SDS011;69421;51.062;3.728;2023-05-07T03:21:10;8.95;;;4.32;;
80111;SDS011;69421;51.062;3.728;2023-05-07T03:23:36;10.05;;;4.95;;
80111;SDS011;69421;51.062;3.728;2023-05-07T03:26:02;9.65;;;3.83;;
80111;SDS011;69421;51.062;3.728;2023-05-07T03:28:27;7.07;;;4.45;;
80111;SDS011;69421;51.062;3.728;2023-05-07T03:30:53;7.82;;;4.60;;
80111;SDS011;69421;51.062;3.728;2023-05-07T03:33:19;8.45;;;3.58;;
80111;SDS011;69421;51.062;3.728;2023-05-07T03:35:44;9.40;;;3.70;;
80111;SDS011;69421;51.062;3.728;2023-05-07T03:38:10;9.90;;;4.65;;
80111;SDS011;69421;51.062;3.728;2023-05-07T03:40:36;12.43;;;4.15;;
80111;SDS011;69421;51.062;3.728;2023-05-07T03:43:02;11.32;;;4.65;;
80111;SDS011;69421;51.062;3.728;2023-05-07T03:45:27;6.22;;;4.35;;
80111;SDS011;69421;51.062;3.728;2023-05-07T03:47:53;11.52;;;4.78;;
80111;SDS011;69421;51.062;3.728;2023-05-07T03:50:19;11.18;;;4.70;;
80111;SDS011;69421;51.062;3.728;2023-05-07T03:52:45;8.75;;;4.28;;
80111;SDS011;69421;51.062;3.728;2023-05-07T03:55:10;10.80;;;5.13;;
80111;SDS011;69421;51.062;3.728;2023-05-07T03:57:36;8.75;;;4.50;;
80111;SDS011;69421;51.062;3.728;2023-05-07T04:00:02;7.80;;;4.18;;
80111;SDS011;69421;51.062;3.728;2023-05-07T04:02:29;8.88;;;4.38;;
80111;SDS011;69421;51.062;3.728;2023-05-07T04:04:55;8.00;;;5.15;;
80111;SDS011;69421;51.062;3.728;2023-05-07T04:07:21;7.20;;;4.05;;
80111;SDS011;69421;51.062;3.728;2023-05-07T04:09:47;8.32;;;5.20;;
80111;SDS011;69421;51.062;3.728;2023-05-07T04:12:12;7.88;;;4.72;;
80111;SDS011;69421;51.062;3.728;2023-05-07T04:14:38;11.40;;;5.45;;
80111;SDS011;69421;51.062;3.728;2023-05-07T04:17:04;8.63;;;4.70;;
80111;SDS011;69421;51.062;3.728;2023-05-07T04:19:32;6.97;;;4.45;;
80111;SDS011;69421;51.062;3.728;2023-05-07T04:21:58;9.02;;;4.65;;
80111;SDS011;69421;51.062;3.728;2023-05-07T04:24:24;10.15;;;4.93;;
80111;SDS011;69421;51.062;3.728;2023-05-07T04:26:50;11.32;;;5.20;;
80111;SDS011;69421;51.062;3.728;2023-05-07T04:29:16;7.72;;;4.95;;
80111;SDS011;69421;51.062;3.728;2023-05-07T04:31:42;10.52;;;4.93;;
80111;SDS011;69421;51.062;3.728;2023-05-07T04:34:10;11.95;;;5.30;;
80111;SDS011;69421;51.062;3.728;2023-05-07T04:36:37;10.80;;;5.03;;
80111;SDS011;69421;51.062;3.728;2023-05-07T04:39:03;10.07;;;5.13;;
80111;SDS011;69421;51.062;3.728;2023-05-07T04:41:28;8.80;;;4.90;;
80111;SDS011;69421;51.062;3.728;2023-05-07T04:43:54;6.78;;;4.75;;
80111;SDS011;69421;51.062;3.728;2023-05-07T04:46:20;8.77;;;5.18;;
80111;SDS011;69421;51.062;3.728;2023-05-07T04:48:46;8.85;;;4.68;;
80111;SDS011;69421;51.062;3.728;2023-05-07T04:51:11;7.10;;;4.53;;
80111;SDS011;69421;51.062;3.728;2023-05-07T04:53:37;12.07;;;5.80;;
80111;SDS011;69421;51.062;3.728;2023-05-07T04:56:03;12.15;;;5.68;;
80111;SDS011;69421;51.062;3.728;2023-05-07T04:58:29;13.57;;;5.60;;
80111;SDS011;69421;51.062;3.728;2023-05-07T05:00:57;10.32;;;5.63;;
80111;SDS011;69421;51.062;3.728;2023-05-07T05:03:23;12.02;;;5.75;;
80111;SDS011;69421;51.062;3.728;2023-05-07T05:05:49;8.25;;;4.93;;
80111;SDS011;69421;51.062;3.728;2023-05-07T05:08:16;7.65;;;5.13;;
80111;SDS011;69421;51.062;3.728;2023-05-07T05:10:42;11.55;;;4.95;;
80111;SDS011;69421;51.062;3.728;2023-05-07T05:13:08;9.23;;;5.13;;
80111;SDS011;69421;51.062;3.728;2023-05-07T05:15:34;11.18;;;4.93;;
80111;SDS011;69421;51.062;3.728;2023-05-07T05:18:00;8.70;;;5.38;;
80111;SDS011;69421;51.062;3.728;2023-05-07T05:20:26;8.35;;;5.32;;
80111;SDS011;69421;51.062;3.728;2023-05-07T05:22:51;8.48;;;4.22;;
80111;SDS011;69421;51.062;3.728;2023-05-07T05:25:17;10.73;;;4.85;;
80111;SDS011;69421;51.062;3.728;2023-05-07T05:27:43;7.63;;;4.72;;
80111;SDS011;69421;51.062;3.728;2023-05-07T05:30:08;11.63;;;6.07;;
80111;SDS011;69421;51.062;3.728;2023-05-07T05:32:34;9.75;;;4.82;;
80111;SDS011;69421;51.062;3.728;2023-05-07T05:35:00;10.45;;;5.07;;
80111;SDS011;69421;51.062;3.728;2023-05-07T05:37:26;9.75;;;4.00;;
80111;SDS011;69421;51.062;3.728;2023-05-07T05:39:52;6.93;;;4.50;;
80111;SDS011;69421;51.062;3.728;2023-05-07T05:42:17;10.18;;;4.70;;
80111;SDS011;69421;51.062;3.728;2023-05-07T05:44:43;8.63;;;4.90;;
80111;SDS011;69421;51.062;3.728;2023-05-07T05:47:09;8.25;;;4.43;;
80111;SDS011;69421;51.062;3.728;2023-05-07T05:49:34;14.15;;;5.07;;
80111;SDS011;69421;51.062;3.728;2023-05-07T05:52:00;9.23;;;4.53;;
80111;SDS011;69421;51.062;3.728;2023-05-07T05:54:25;9.02;;;5.13;;
80111;SDS011;69421;51.062;3.728;2023-05-07T05:56:51;11.73;;;5.75;;
80111;SDS011;69421;51.062;3.728;2023-05-07T05:59:17;6.35;;;5.20;;
80111;SDS011;69421;51.062;3.728;2023-05-07T06:01:42;8.75;;;5.05;;
80111;SDS011;69421;51.062;3.728;2023-05-07T06:04:08;10.98;;;5.18;;
80111;SDS011;69421;51.062;3.728;2023-05-07T06:06:33;7.78;;;5.55;;
80111;SDS011;69421;51.062;3.728;2023-05-07T06:08:59;11.20;;;5.13;;
80111;SDS011;69421;51.062;3.728;2023-05-07T06:11:25;12.07;;;5.78;;
80111;SDS011;69421;51.062;3.728;2023-05-07T06:13:51;12.18;;;6.28;;
80111;SDS011;69421;51.062;3.728;2023-05-07T06:16:16;10.02;;;6.15;;
80111;SDS011;69421;51.062;3.728;2023-05-07T06:18:42;12.15;;;6.30;;
80111;SDS011;69421;51.062;3.728;2023-05-07T06:21:07;12.80;;;6.88;;
80111;SDS011;69421;51.062;3.728;2023-05-07T06:23:33;11.27;;;7.10;;
80111;SDS011;69421;51.062;3.728;2023-05-07T06:25:59;9.00;;;6.20;;
80111;SDS011;69421;51.062;3.728;2023-05-07T06:28:24;8.87;;;5.73;;
80111;SDS011;69421;51.062;3.728;2023-05-07T06:30:50;18.08;;;7.32;;
80111;SDS011;69421;51.062;3.728;2023-05-07T06:33:15;8.80;;;6.05;;
80111;SDS011;69421;51.062;3.728;2023-05-07T06:35:41;10.27;;;5.72;;
80111;SDS011;69421;51.062;3.728;2023-05-07T06:38:07;6.95;;;4.70;;
80111;SDS011;69421;51.062;3.728;2023-05-07T06:40:32;11.50;;;6.03;;
80111;SDS011;69421;51.062;3.728;2023-05-07T06:42:58;11.00;;;5.03;;
80111;SDS011;69421;51.062;3.728;2023-05-07T06:45:24;8.15;;;4.72;;
80111;SDS011;69421;51.062;3.728;2023-05-07T06:47:50;8.93;;;5.10;;
80111;SDS011;69421;51.062;3.728;2023-05-07T06:50:15;9.60;;;5.18;;
80111;SDS011;69421;51.062;3.728;2023-05-07T06:52:42;7.38;;;5.15;;
80111;SDS011;69421;51.062;3.728;2023-05-07T06:55:08;7.10;;;5.10;;
80111;SDS011;69421;51.062;3.728;2023-05-07T06:57:34;9.77;;;4.60;;
80111;SDS011;69421;51.062;3.728;2023-05-07T06:59:59;7.70;;;4.43;;
80111;SDS011;69421;51.062;3.728;2023-05-07T07:02:25;10.50;;;5.43;;
80111;SDS011;69421;51.062;3.728;2023-05-07T07:04:51;7.45;;;4.35;;
80111;SDS011;69421;51.062;3.728;2023-05-07T07:07:16;7.47;;;4.70;;
80111;SDS011;69421;51.062;3.728;2023-05-07T07:09:42;10.07;;;5.10;;
80111;SDS011;69421;51.062;3.728;2023-05-07T07:12:08;7.07;;;3.90;;
80111;SDS011;69421;51.062;3.728;2023-05-07T07:14:33;6.90;;;4.88;;
80111;SDS011;69421;51.062;3.728;2023-05-07T07:16:59;10.30;;;4.50;;
80111;SDS011;69421;51.062;3.728;2023-05-07T07:19:25;10.52;;;5.13;;
80111;SDS011;69421;51.062;3.728;2023-05-07T07:21:51;8.73;;;5.05;;
80111;SDS011;69421;51.062;3.728;2023-05-07T07:24:16;8.38;;;6.38;;
80111;SDS011;69421;51.062;3.728;2023-05-07T07:26:46;9.25;;;5.18;;
80111;SDS011;69421;51.062;3.728;2023-05-07T07:29:11;8.80;;;4.72;;
80111;SDS011;69421;51.062;3.728;2023-05-07T07:31:37;9.30;;;5.15;;
80111;SDS011;69421;51.062;3.728;2023-05-07T07:34:03;12.60;;;5.03;;
80111;SDS011;69421;51.062;3.728;2023-05-07T07:36:29;11.50;;;5.28;;
80111;SDS011;69421;51.062;3.728;2023-05-07T07:38:55;7.88;;;4.63;;
80111;SDS011;69421;51.062;3.728;2023-05-07T07:41:20;7.53;;;3.92;;
80111;SDS011;69421;51.062;3.728;2023-05-07T07:43:46;9.63;;;3.78;;
80111;SDS011;69421;51.062;3.728;2023-05-07T07:46:12;10.65;;;4.75;;
80111;SDS011;69421;51.062;3.728;2023-05-07T07:48:38;6.40;;;3.90;;
80111;SDS011;69421;51.062;3.728;2023-05-07T07:51:03;10.05;;;4.45;;
80111;SDS011;69421;51.062;3.728;2023-05-07T07:53:29;6.25;;;4.45;;
80111;SDS011;69421;51.062;3.728;2023-05-07T07:55:55;5.57;;;4.28;;
80111;SDS011;69421;51.062;3.728;2023-05-07T07:58:21;6.95;;;3.75;;
80111;SDS011;69421;51.062;3.728;2023-05-07T08:00:47;6.22;;;3.63;;
80111;SDS011;69421;51.062;3.728;2023-05-07T08:03:13;7.78;;;4.20;;
80111;SDS011;69421;51.062;3.728;2023-05-07T08:05:39;6.05;;;3.30;;
80111;SDS011;69421;51.062;3.728;2023-05-07T08:08:05;7.60;;;3.70;;
80111;SDS011;69421;51.062;3.728;2023-05-07T08:10:31;7.78;;;3.70;;
80111;SDS011;69421;51.062;3.728;2023-05-07T08:12:59;9.85;;;3.20;;
80111;SDS011;69421;51.062;3.728;2023-05-07T08:15:25;6.25;;;3.42;;
80111;SDS011;69421;51.062;3.728;2023-05-07T08:17:51;5.13;;;3.70;;
80111;SDS011;69421;51.062;3.728;2023-05-07T08:20:17;7.65;;;4.00;;
80111;SDS011;69421;51.062;3.728;2023-05-07T08:22:42;11.15;;;5.93;;
80111;SDS011;69421;51.062;3.728;2023-05-07T08:25:08;9.60;;;5.45;;
80111;SDS011;69421;51.062;3.728;2023-05-07T08:27:34;8.60;;;4.82;;
80111;SDS011;69421;51.062;3.728;2023-05-07T08:30:00;8.35;;;4.13;;
80111;SDS011;69421;51.062;3.728;2023-05-07T08:32:25;8.55;;;3.85;;
80111;SDS011;69421;51.062;3.728;2023-05-07T08:34:51;10.05;;;3.55;;
80111;SDS011;69421;51.062;3.728;2023-05-07T08:37:17;8.73;;;3.20;;
80111;SDS011;69421;51.062;3.728;2023-05-07T08:39:42;4.85;;;2.83;;
80111;SDS011;69421;51.062;3.728;2023-05-07T08:42:08;7.32;;;3.92;;
80111;SDS011;69421;51.062;3.728;2023-05-07T08:44:35;10.43;;;3.60;;
80111;SDS011;69421;51.062;3.728;2023-05-07T08:47:00;7.97;;;3.80;;
80111;SDS011;69421;51.062;3.728;2023-05-07T08:49:27;6.97;;;3.88;;
80111;SDS011;69421;51.062;3.728;2023-05-07T08:51:53;7.78;;;5.88;;
80111;SDS011;69421;51.062;3.728;2023-05-07T08:54:20;15.02;;;5.05;;
80111;SDS011;69421;51.062;3.728;2023-05-07T08:56:46;10.90;;;7.53;;
80111;SDS011;69421;51.062;3.728;2023-05-07T08:59:11;15.27;;;11.88;;
80111;SDS011;69421;51.062;3.728;2023-05-07T09:01:37;7.78;;;5.38;;
80111;SDS011;69421;51.062;3.728;2023-05-07T09:04:03;6.82;;;4.43;;
80111;SDS011;69421;51.062;3.728;2023-05-07T09:06:29;5.22;;;2.90;;
80111;SDS011;69421;51.062;3.728;2023-05-07T09:08:55;8.00;;;4.68;;
80111;SDS011;69421;51.062;3.728;2023-05-07T09:11:23;5.60;;;3.47;;
80111;SDS011;69421;51.062;3.728;2023-05-07T09:13:53;8.25;;;3.20;;
80111;SDS011;69421;51.062;3.728;2023-05-07T09:16:20;7.88;;;4.28;;
80111;SDS011;69421;51.062;3.728;2023-05-07T09:18:48;5.72;;;2.60;;
80111;SDS011;69421;51.062;3.728;2023-05-07T09:21:17;8.38;;;3.35;;
80111;SDS011;69421;51.062;3.728;2023-05-07T09:23:43;7.00;;;3.40;;
80111;SDS011;69421;51.062;3.728;2023-05-07T09:26:09;7.78;;;3.30;;
80111;SDS011;69421;51.062;3.728;2023-05-07T09:28:43;8.40;;;7.53;;
80111;SDS011;69421;51.062;3.728;2023-05-07T09:31:09;5.40;;;4.53;;
80111;SDS011;69421;51.062;3.728;2023-05-07T09:33:35;6.38;;;4.50;;
80111;SDS011;69421;51.062;3.728;2023-05-07T09:36:04;9.77;;;5.47;;
80111;SDS011;69421;51.062;3.728;2023-05-07T09:38:34;4.18;;;2.15;;
80111;SDS011;69421;51.062;3.728;2023-05-07T09:41:07;6.18;;;2.78;;
80111;SDS011;69421;51.062;3.728;2023-05-07T09:43:35;4.47;;;2.50;;
80111;SDS011;69421;51.062;3.728;2023-05-07T09:46:09;6.28;;;2.38;;
80111;SDS011;69421;51.062;3.728;2023-05-07T09:48:38;6.95;;;2.45;;
80111;SDS011;69421;51.062;3.728;2023-05-07T09:51:21;4.63;;;2.65;;
80111;SDS011;69421;51.062;3.728;2023-05-07T09:53:52;9.70;;;6.88;;
80111;SDS011;69421;51.062;3.728;2023-05-07T09:56:18;4.57;;;2.80;;
80111;SDS011;69421;51.062;3.728;2023-05-07T09:58:45;5.53;;;2.53;;
80111;SDS011;69421;51.062;3.728;2023-05-07T10:01:12;5.68;;;2.50;;
80111;SDS011;69421;51.062;3.728;2023-05-07T10:03:41;3.95;;;3.05;;
80111;SDS011;69421;51.062;3.728;2023-05-07T10:06:09;6.07;;;2.33;;
80111;SDS011;69421;51.062;3.728;2023-05-07T10:08:36;7.57;;;3.30;;
80111;SDS011;69421;51.062;3.728;2023-05-07T10:11:05;4.28;;;3.58;;
80111;SDS011;69421;51.062;3.728;2023-05-07T10:13:32;6.68;;;2.45;;
80111;SDS011;69421;51.062;3.728;2023-05-07T10:16:01;6.35;;;2.88;;
80111;SDS011;69421;51.062;3.728;2023-05-07T10:18:28;5.53;;;2.40;;
80111;SDS011;69421;51.062;3.728;2023-05-07T10:21:07;4.93;;;2.50;;
80111;SDS011;69421;51.062;3.728;2023-05-07T10:23:35;6.03;;;3.28;;
80111;SDS011;69421;51.062;3.728;2023-05-07T10:26:03;9.35;;;5.20;;
80111;SDS011;69421;51.062;3.728;2023-05-07T10:28:31;7.00;;;3.58;;
80111;SDS011;69421;51.062;3.728;2023-05-07T10:33:50;5.20;;;2.28;;
80111;SDS011;69421;51.062;3.728;2023-05-07T10:36:16;4.93;;;1.90;;
80111;SDS011;69421;51.062;3.728;2023-05-07T10:38:43;2.45;;;1.55;;
80111;SDS011;69421;51.062;3.728;2023-05-07T10:41:09;3.40;;;1.80;;
80111;SDS011;69421;51.062;3.728;2023-05-07T10:43:42;2.25;;;1.63;;
80111;SDS011;69421;51.062;3.728;2023-05-07T10:46:09;3.35;;;1.60;;
80111;SDS011;69421;51.062;3.728;2023-05-07T10:51:26;4.20;;;1.83;;
80111;SDS011;69421;51.062;3.728;2023-05-07T10:56:40;3.90;;;2.20;;
80111;SDS011;69421;51.062;3.728;2023-05-07T11:01:58;3.25;;;1.42;;
80111;SDS011;69421;51.062;3.728;2023-05-07T11:04:24;3.28;;;1.10;;
80111;SDS011;69421;51.062;3.728;2023-05-07T11:15:15;3.78;;;1.23;;
80111;SDS011;69421;51.062;3.728;2023-05-07T11:26:02;4.50;;;2.65;;
80111;SDS011;69421;51.062;3.728;2023-05-07T11:28:36;2.53;;;1.38;;
80111;SDS011;69421;51.062;3.728;2023-05-07T11:31:06;2.65;;;1.30;;
80111;SDS011;69421;51.062;3.728;2023-05-07T11:33:32;3.08;;;1.52;;
80111;SDS011;69421;51.062;3.728;2023-05-07T11:35:58;2.15;;;1.17;;
80111;SDS011;69421;51.062;3.728;2023-05-07T11:38:25;3.22;;;2.00;;
80111;SDS011;69421;51.062;3.728;2023-05-07T11:43:20;2.42;;;1.85;;
80111;SDS011;69421;51.062;3.728;2023-05-07T11:45:46;3.05;;;1.95;;
80111;SDS011;69421;51.062;3.728;2023-05-07T11:48:12;1.92;;;1.48;;
80111;SDS011;69421;51.062;3.728;2023-05-07T11:53:41;5.45;;;2.20;;
80111;SDS011;69421;51.062;3.728;2023-05-07T11:56:11;3.45;;;1.75;;
80111;SDS011;69421;51.062;3.728;2023-05-07T11:58:39;2.42;;;1.23;;
80111;SDS011;69421;51.062;3.728;2023-05-07T12:01:07;4.10;;;1.50;;
80111;SDS011;69421;51.062;3.728;2023-05-07T12:05:59;4.35;;;3.95;;
80111;SDS011;69421;51.062;3.728;2023-05-07T12:08:25;5.78;;;3.50;;
80111;SDS011;69421;51.062;3.728;2023-05-07T12:10:51;5.00;;;4.15;;
80111;SDS011;69421;51.062;3.728;2023-05-07T12:13:21;7.78;;;6.72;;
80111;SDS011;69421;51.062;3.728;2023-05-07T12:15:54;5.78;;;4.63;;
80111;SDS011;69421;51.062;3.728;2023-05-07T12:18:21;15.07;;;13.43;;
80111;SDS011;69421;51.062;3.728;2023-05-07T12:20:47;30.02;;;25.20;;
80111;SDS011;69421;51.062;3.728;2023-05-07T12:23:14;5.57;;;2.50;;
80111;SDS011;69421;51.062;3.728;2023-05-07T12:25:40;2.95;;;1.95;;
80111;SDS011;69421;51.062;3.728;2023-05-07T12:28:13;2.90;;;1.13;;
80111;SDS011;69421;51.062;3.728;2023-05-07T12:30:40;3.22;;;1.45;;
80111;SDS011;69421;51.062;3.728;2023-05-07T12:33:07;15.27;;;11.00;;
80111;SDS011;69421;51.062;3.728;2023-05-07T12:35:37;2.83;;;1.90;;
80111;SDS011;69421;51.062;3.728;2023-05-07T12:38:08;3.85;;;1.73;;
80111;SDS011;69421;51.062;3.728;2023-05-07T12:40:39;3.88;;;1.65;;
80111;SDS011;69421;51.062;3.728;2023-05-07T12:43:05;3.90;;;1.52;;
80111;SDS011;69421;51.062;3.728;2023-05-07T12:45:30;1.90;;;1.33;;
80111;SDS011;69421;51.062;3.728;2023-05-07T12:47:57;2.97;;;1.30;;
80111;SDS011;69421;51.062;3.728;2023-05-07T12:50:30;3.53;;;3.20;;
80111;SDS011;69421;51.062;3.728;2023-05-07T12:52:57;4.13;;;3.45;;
80111;SDS011;69421;51.062;3.728;2023-05-07T12:55:23;3.58;;;1.80;;
80111;SDS011;69421;51.062;3.728;2023-05-07T12:57:49;2.30;;;1.45;;
80111;SDS011;69421;51.062;3.728;2023-05-07T13:00:17;2.38;;;1.38;;
80111;SDS011;69421;51.062;3.728;2023-05-07T13:02:44;3.35;;;1.80;;
80111;SDS011;69421;51.062;3.728;2023-05-07T13:05:10;3.30;;;1.60;;
80111;SDS011;69421;51.062;3.728;2023-05-07T13:07:36;1.23;;;1.05;;
80111;SDS011;69421;51.062;3.728;2023-05-07T13:10:02;2.65;;;1.15;;
80111;SDS011;69421;51.062;3.728;2023-05-07T13:12:28;1.63;;;1.20;;
80111;SDS011;69421;51.062;3.728;2023-05-07T13:14:54;4.25;;;1.98;;
80111;SDS011;69421;51.062;3.728;2023-05-07T13:17:20;2.10;;;1.30;;
80111;SDS011;69421;51.062;3.728;2023-05-07T13:19:45;2.58;;;1.90;;
80111;SDS011;69421;51.062;3.728;2023-05-07T13:22:11;2.10;;;0.70;;
80111;SDS011;69421;51.062;3.728;2023-05-07T13:24:37;3.35;;;1.15;;
80111;SDS011;69421;51.062;3.728;2023-05-07T13:27:02;6.60;;;4.97;;
80111;SDS011;69421;51.062;3.728;2023-05-07T13:29:29;3.17;;;2.38;;
80111;SDS011;69421;51.062;3.728;2023-05-07T13:31:58;15.60;;;13.75;;
80111;SDS011;69421;51.062;3.728;2023-05-07T13:34:25;2.70;;;2.33;;
80111;SDS011;69421;51.062;3.728;2023-05-07T13:36:50;3.05;;;1.83;;
80111;SDS011;69421;51.062;3.728;2023-05-07T13:39:16;7.95;;;7.25;;
80111;SDS011;69421;51.062;3.728;2023-05-07T13:41:42;2.47;;;1.48;;
80111;SDS011;69421;51.062;3.728;2023-05-07T13:44:08;3.75;;;1.77;;
80111;SDS011;69421;51.062;3.728;2023-05-07T13:46:33;13.20;;;11.55;;
80111;SDS011;69421;51.062;3.728;2023-05-07T13:48:59;15.35;;;12.90;;
80111;SDS011;69421;51.062;3.728;2023-05-07T13:51:25;5.95;;;4.45;;
80111;SDS011;69421;51.062;3.728;2023-05-07T13:53:50;3.53;;;2.55;;
80111;SDS011;69421;51.062;3.728;2023-05-07T13:56:17;13.40;;;9.93;;
80111;SDS011;69421;51.062;3.728;2023-05-07T13:58:43;16.45;;;14.35;;
80111;SDS011;69421;51.062;3.728;2023-05-07T14:01:08;10.98;;;7.18;;
80111;SDS011;69421;51.062;3.728;2023-05-07T14:03:34;20.02;;;15.80;;
80111;SDS011;69421;51.062;3.728;2023-05-07T14:06:02;20.55;;;14.75;;
80111;SDS011;69421;51.062;3.728;2023-05-07T14:08:28;48.85;;;29.75;;
80111;SDS011;69421;51.062;3.728;2023-05-07T14:10:54;5.07;;;2.92;;
80111;SDS011;69421;51.062;3.728;2023-05-07T14:13:20;4.50;;;3.65;;
80111;SDS011;69421;51.062;3.728;2023-05-07T14:15:46;6.07;;;3.05;;
80111;SDS011;69421;51.062;3.728;2023-05-07T14:18:13;5.93;;;5.00;;
80111;SDS011;69421;51.062;3.728;2023-05-07T14:20:39;7.05;;;6.00;;
80111;SDS011;69421;51.062;3.728;2023-05-07T14:23:04;5.53;;;4.70;;
80111;SDS011;69421;51.062;3.728;2023-05-07T14:25:30;4.85;;;4.10;;
80111;SDS011;69421;51.062;3.728;2023-05-07T14:27:56;77.30;;;49.60;;
80111;SDS011;69421;51.062;3.728;2023-05-07T14:30:21;36.35;;;20.02;;
80111;SDS011;69421;51.062;3.728;2023-05-07T14:32:49;66.97;;;33.70;;
80111;SDS011;69421;51.062;3.728;2023-05-07T14:35:15;21.17;;;17.52;;
80111;SDS011;69421;51.062;3.728;2023-05-07T14:37:41;28.95;;;22.73;;
80111;SDS011;69421;51.062;3.728;2023-05-07T14:40:07;80.55;;;45.90;;
80111;SDS011;69421;51.062;3.728;2023-05-07T14:42:33;45.78;;;29.27;;
80111;SDS011;69421;51.062;3.728;2023-05-07T14:44:59;24.10;;;19.15;;
80111;SDS011;69421;51.062;3.728;2023-05-07T14:47:24;14.00;;;11.55;;
80111;SDS011;69421;51.062;3.728;2023-05-07T14:49:50;15.77;;;14.18;;
80111;SDS011;69421;51.062;3.728;2023-05-07T14:52:16;12.63;;;10.05;;
80111;SDS011;69421;51.062;3.728;2023-05-07T14:54:42;7.50;;;5.38;;
80111;SDS011;69421;51.062;3.728;2023-05-07T14:57:08;8.48;;;7.38;;
80111;SDS011;69421;51.062;3.728;2023-05-07T14:59:35;12.30;;;9.00;;
80111;SDS011;69421;51.062;3.728;2023-05-07T15:02:00;8.30;;;5.95;;
80111;SDS011;69421;51.062;3.728;2023-05-07T15:04:26;8.18;;;4.97;;
80111;SDS011;69421;51.062;3.728;2023-05-07T15:06:52;44.38;;;29.92;;
80111;SDS011;69421;51.062;3.728;2023-05-07T15:09:19;14.02;;;11.60;;
80111;SDS011;69421;51.062;3.728;2023-05-07T15:11:44;54.40;;;33.20;;
80111;SDS011;69421;51.062;3.728;2023-05-07T15:14:10;101.25;;;69.88;;